sensor_id;sensor_type;location;lat;lon;timestamp;P1;durP1;ratioP1;P2;durP2;ratioP2
20241;SDS011;10279;46.388;8.116;2022-09-24T00:01:24;2.03;;;1.40;;
20241;SDS011;10279;46.388;8.116;2022-09-24T00:03:59;2.27;;;1.50;;
20241;SDS011;10279;46.388;8.116;2022-09-24T00:06:28;2.90;;;1.70;;
20241;SDS011;10279;46.388;8.116;2022-09-24T00:08:56;2.43;;;1.40;;
20241;SDS011;10279;46.388;8.116;2022-09-24T00:11:24;2.53;;;1.60;;
20241;SDS011;10279;46.388;8.116;2022-09-24T00:13:52;1.67;;;1.57;;
20241;SDS011;10279;46.388;8.116;2022-09-24T00:16:20;3.70;;;1.67;;
20241;SDS011;10279;46.388;8.116;2022-09-24T00:18:48;3.13;;;1.47;;
20241;SDS011;10279;46.388;8.116;2022-09-24T00:21:17;2.83;;;1.70;;
20241;SDS011;10279;46.388;8.116;2022-09-24T00:23:47;2.00;;;1.47;;
20241;SDS011;10279;46.388;8.116;2022-09-24T00:26:15;2.00;;;1.80;;
20241;SDS011;10279;46.388;8.116;2022-09-24T00:29:01;1.77;;;1.67;;
20241;SDS011;10279;46.388;8.116;2022-09-24T00:31:28;1.90;;;1.63;;
20241;SDS011;10279;46.388;8.116;2022-09-24T00:33:56;1.87;;;1.67;;
20241;SDS011;10279;46.388;8.116;2022-09-24T00:36:24;5.17;;;1.83;;
20241;SDS011;10279;46.388;8.116;2022-09-24T00:38:53;2.87;;;1.53;;
20241;SDS011;10279;46.388;8.116;2022-09-24T00:41:22;2.23;;;2.03;;
20241;SDS011;10279;46.388;8.116;2022-09-24T00:43:50;2.27;;;1.70;;
20241;SDS011;10279;46.388;8.116;2022-09-24T00:48:49;2.70;;;1.50;;
20241;SDS011;10279;46.388;8.116;2022-09-24T00:51:17;1.53;;;1.40;;
20241;SDS011;10279;46.388;8.116;2022-09-24T00:53:47;2.37;;;1.50;;
20241;SDS011;10279;46.388;8.116;2022-09-24T00:56:15;2.17;;;1.60;;
20241;SDS011;10279;46.388;8.116;2022-09-24T00:58:43;2.20;;;1.40;;
20241;SDS011;10279;46.388;8.116;2022-09-24T01:01:12;3.87;;;1.83;;
20241;SDS011;10279;46.388;8.116;2022-09-24T01:03:40;2.43;;;1.40;;
20241;SDS011;10279;46.388;8.116;2022-09-24T01:06:08;1.87;;;1.43;;
20241;SDS011;10279;46.388;8.116;2022-09-24T01:08:37;1.73;;;1.50;;
20241;SDS011;10279;46.388;8.116;2022-09-24T01:16:27;1.80;;;1.40;;
20241;SDS011;10279;46.388;8.116;2022-09-24T01:24:21;1.87;;;1.37;;
20241;SDS011;10279;46.388;8.116;2022-09-24T01:29:27;1.67;;;1.30;;
20241;SDS011;10279;46.388;8.116;2022-09-24T01:32:01;1.43;;;1.33;;
20241;SDS011;10279;46.388;8.116;2022-09-24T01:34:37;2.50;;;1.50;;
20241;SDS011;10279;46.388;8.116;2022-09-24T01:37:07;2.13;;;1.60;;
20241;SDS011;10279;46.388;8.116;2022-09-24T01:39:34;2.80;;;2.00;;
20241;SDS011;10279;46.388;8.116;2022-09-24T01:42:03;2.00;;;1.70;;
20241;SDS011;10279;46.388;8.116;2022-09-24T01:44:31;2.63;;;1.50;;
20241;SDS011;10279;46.388;8.116;2022-09-24T01:47:00;1.87;;;1.70;;
20241;SDS011;10279;46.388;8.116;2022-09-24T01:49:27;2.90;;;1.50;;
20241;SDS011;10279;46.388;8.116;2022-09-24T01:51:56;2.70;;;1.43;;
20241;SDS011;10279;46.388;8.116;2022-09-24T01:54:25;1.37;;;1.20;;
20241;SDS011;10279;46.388;8.116;2022-09-24T01:57:00;1.60;;;1.50;;
20241;SDS011;10279;46.388;8.116;2022-09-24T01:59:33;1.80;;;1.70;;
20241;SDS011;10279;46.388;8.116;2022-09-24T02:02:07;5.30;;;1.93;;
20241;SDS011;10279;46.388;8.116;2022-09-24T02:04:39;2.37;;;1.50;;
20241;SDS011;10279;46.388;8.116;2022-09-24T02:07:13;2.00;;;1.50;;
20241;SDS011;10279;46.388;8.116;2022-09-24T02:09:42;2.43;;;1.90;;
20241;SDS011;10279;46.388;8.116;2022-09-24T02:12:20;1.67;;;1.53;;
20241;SDS011;10279;46.388;8.116;2022-09-24T02:14:52;1.73;;;1.43;;
20241;SDS011;10279;46.388;8.116;2022-09-24T02:17:20;1.80;;;1.40;;
20241;SDS011;10279;46.388;8.116;2022-09-24T02:19:49;2.00;;;1.80;;
20241;SDS011;10279;46.388;8.116;2022-09-24T02:22:16;3.13;;;1.50;;
20241;SDS011;10279;46.388;8.116;2022-09-24T02:24:45;1.73;;;1.57;;
20241;SDS011;10279;46.388;8.116;2022-09-24T02:27:15;1.80;;;1.60;;
20241;SDS011;10279;46.388;8.116;2022-09-24T02:29:42;3.30;;;2.13;;
20241;SDS011;10279;46.388;8.116;2022-09-24T02:32:10;3.23;;;1.80;;
20241;SDS011;10279;46.388;8.116;2022-09-24T02:34:44;6.03;;;2.17;;
20241;SDS011;10279;46.388;8.116;2022-09-24T02:37:13;5.73;;;1.93;;
20241;SDS011;10279;46.388;8.116;2022-09-24T02:39:40;2.07;;;1.60;;
20241;SDS011;10279;46.388;8.116;2022-09-24T02:42:08;4.13;;;1.67;;
20241;SDS011;10279;46.388;8.116;2022-09-24T02:44:36;2.10;;;1.83;;
20241;SDS011;10279;46.388;8.116;2022-09-24T02:47:04;1.90;;;1.60;;
20241;SDS011;10279;46.388;8.116;2022-09-24T02:49:32;3.53;;;1.57;;
20241;SDS011;10279;46.388;8.116;2022-09-24T02:51:59;1.90;;;1.70;;
20241;SDS011;10279;46.388;8.116;2022-09-24T02:54:27;2.37;;;1.60;;
20241;SDS011;10279;46.388;8.116;2022-09-24T02:56:54;1.57;;;1.47;;
20241;SDS011;10279;46.388;8.116;2022-09-24T02:59:21;2.20;;;1.53;;
20241;SDS011;10279;46.388;8.116;2022-09-24T03:01:49;1.80;;;1.70;;
20241;SDS011;10279;46.388;8.116;2022-09-24T03:04:16;1.60;;;1.50;;
20241;SDS011;10279;46.388;8.116;2022-09-24T03:06:44;1.50;;;1.40;;
20241;SDS011;10279;46.388;8.116;2022-09-24T03:09:11;3.27;;;1.80;;
20241;SDS011;10279;46.388;8.116;2022-09-24T03:11:38;1.90;;;1.50;;
20241;SDS011;10279;46.388;8.116;2022-09-24T03:14:06;1.40;;;1.27;;
20241;SDS011;10279;46.388;8.116;2022-09-24T03:16:33;3.00;;;2.33;;
20241;SDS011;10279;46.388;8.116;2022-09-24T03:19:01;1.50;;;1.33;;
20241;SDS011;10279;46.388;8.116;2022-09-24T03:21:28;2.23;;;1.40;;
20241;SDS011;10279;46.388;8.116;2022-09-24T03:23:56;1.73;;;1.40;;
20241;SDS011;10279;46.388;8.116;2022-09-24T03:26:23;1.70;;;1.23;;
20241;SDS011;10279;46.388;8.116;2022-09-24T03:28:51;4.27;;;1.50;;
20241;SDS011;10279;46.388;8.116;2022-09-24T03:31:18;1.50;;;1.40;;
20241;SDS011;10279;46.388;8.116;2022-09-24T03:33:48;1.97;;;1.53;;
20241;SDS011;10279;46.388;8.116;2022-09-24T03:36:17;1.97;;;1.77;;
20241;SDS011;10279;46.388;8.116;2022-09-24T03:38:46;2.03;;;1.50;;
20241;SDS011;10279;46.388;8.116;2022-09-24T03:41:14;1.93;;;1.73;;
20241;SDS011;10279;46.388;8.116;2022-09-24T03:43:42;1.43;;;1.33;;
20241;SDS011;10279;46.388;8.116;2022-09-24T03:46:10;1.60;;;1.47;;
20241;SDS011;10279;46.388;8.116;2022-09-24T03:48:38;3.10;;;1.60;;
20241;SDS011;10279;46.388;8.116;2022-09-24T03:51:07;2.33;;;1.63;;
20241;SDS011;10279;46.388;8.116;2022-09-24T03:53:35;2.20;;;1.27;;
20241;SDS011;10279;46.388;8.116;2022-09-24T03:56:03;2.10;;;1.60;;
20241;SDS011;10279;46.388;8.116;2022-09-24T03:58:31;2.23;;;1.77;;
20241;SDS011;10279;46.388;8.116;2022-09-24T04:01:04;1.57;;;1.47;;
20241;SDS011;10279;46.388;8.116;2022-09-24T04:03:31;2.10;;;1.60;;
20241;SDS011;10279;46.388;8.116;2022-09-24T04:05:59;3.43;;;1.83;;
20241;SDS011;10279;46.388;8.116;2022-09-24T04:08:26;3.07;;;1.60;;
20241;SDS011;10279;46.388;8.116;2022-09-24T04:10:54;1.60;;;1.50;;
20241;SDS011;10279;46.388;8.116;2022-09-24T04:13:21;2.43;;;1.60;;
20241;SDS011;10279;46.388;8.116;2022-09-24T04:15:49;2.33;;;1.53;;
20241;SDS011;10279;46.388;8.116;2022-09-24T04:18:17;2.63;;;1.67;;
20241;SDS011;10279;46.388;8.116;2022-09-24T04:20:44;2.87;;;1.80;;
20241;SDS011;10279;46.388;8.116;2022-09-24T04:23:12;2.17;;;1.40;;
20241;SDS011;10279;46.388;8.116;2022-09-24T04:25:40;1.83;;;1.60;;
20241;SDS011;10279;46.388;8.116;2022-09-24T04:28:08;1.47;;;1.37;;
20241;SDS011;10279;46.388;8.116;2022-09-24T04:30:35;1.53;;;1.30;;
20241;SDS011;10279;46.388;8.116;2022-09-24T04:33:03;1.97;;;1.60;;
20241;SDS011;10279;46.388;8.116;2022-09-24T04:35:31;2.23;;;1.40;;
20241;SDS011;10279;46.388;8.116;2022-09-24T04:38:02;1.50;;;1.33;;
20241;SDS011;10279;46.388;8.116;2022-09-24T04:40:29;1.90;;;1.50;;
20241;SDS011;10279;46.388;8.116;2022-09-24T04:42:57;1.50;;;1.40;;
20241;SDS011;10279;46.388;8.116;2022-09-24T04:45:24;3.17;;;1.70;;
20241;SDS011;10279;46.388;8.116;2022-09-24T04:47:52;1.43;;;1.33;;
20241;SDS011;10279;46.388;8.116;2022-09-24T04:50:23;1.43;;;1.33;;
20241;SDS011;10279;46.388;8.116;2022-09-24T04:52:52;1.60;;;1.50;;
20241;SDS011;10279;46.388;8.116;2022-09-24T04:55:20;2.97;;;1.90;;
20241;SDS011;10279;46.388;8.116;2022-09-24T04:57:47;2.60;;;2.10;;
20241;SDS011;10279;46.388;8.116;2022-09-24T05:00:17;4.60;;;3.10;;
20241;SDS011;10279;46.388;8.116;2022-09-24T05:02:45;6.27;;;3.77;;
20241;SDS011;10279;46.388;8.116;2022-09-24T05:05:13;2.90;;;2.67;;
20241;SDS011;10279;46.388;8.116;2022-09-24T05:07:40;3.13;;;2.20;;
20241;SDS011;10279;46.388;8.116;2022-09-24T05:10:09;1.80;;;1.70;;
20241;SDS011;10279;46.388;8.116;2022-09-24T05:12:38;1.73;;;1.63;;
20241;SDS011;10279;46.388;8.116;2022-09-24T05:15:06;2.20;;;1.87;;
20241;SDS011;10279;46.388;8.116;2022-09-24T05:17:36;1.70;;;1.60;;
20241;SDS011;10279;46.388;8.116;2022-09-24T05:20:04;2.00;;;1.60;;
20241;SDS011;10279;46.388;8.116;2022-09-24T05:22:31;1.47;;;1.30;;
20241;SDS011;10279;46.388;8.116;2022-09-24T05:24:59;1.90;;;1.57;;
20241;SDS011;10279;46.388;8.116;2022-09-24T05:27:26;1.57;;;1.47;;
20241;SDS011;10279;46.388;8.116;2022-09-24T05:29:53;2.33;;;1.53;;
20241;SDS011;10279;46.388;8.116;2022-09-24T05:32:21;2.87;;;2.03;;
20241;SDS011;10279;46.388;8.116;2022-09-24T05:34:49;1.93;;;1.73;;
20241;SDS011;10279;46.388;8.116;2022-09-24T05:37:17;1.80;;;1.57;;
20241;SDS011;10279;46.388;8.116;2022-09-24T05:39:45;3.87;;;1.70;;
20241;SDS011;10279;46.388;8.116;2022-09-24T05:42:12;2.07;;;1.80;;
20241;SDS011;10279;46.388;8.116;2022-09-24T05:44:40;2.30;;;1.70;;
20241;SDS011;10279;46.388;8.116;2022-09-24T05:47:17;1.70;;;1.57;;
20241;SDS011;10279;46.388;8.116;2022-09-24T05:49:44;2.10;;;1.83;;
20241;SDS011;10279;46.388;8.116;2022-09-24T05:52:11;5.33;;;1.57;;
20241;SDS011;10279;46.388;8.116;2022-09-24T05:54:39;3.23;;;2.47;;
20241;SDS011;10279;46.388;8.116;2022-09-24T05:57:06;2.43;;;2.23;;
20241;SDS011;10279;46.388;8.116;2022-09-24T05:59:34;5.03;;;2.00;;
20241;SDS011;10279;46.388;8.116;2022-09-24T06:02:01;2.40;;;2.00;;
20241;SDS011;10279;46.388;8.116;2022-09-24T06:04:28;2.37;;;1.73;;
20241;SDS011;10279;46.388;8.116;2022-09-24T06:06:56;2.80;;;2.30;;
20241;SDS011;10279;46.388;8.116;2022-09-24T06:09:23;3.10;;;2.43;;
20241;SDS011;10279;46.388;8.116;2022-09-24T06:11:51;2.90;;;2.33;;
20241;SDS011;10279;46.388;8.116;2022-09-24T06:14:19;2.97;;;1.97;;
20241;SDS011;10279;46.388;8.116;2022-09-24T06:16:46;2.00;;;1.80;;
20241;SDS011;10279;46.388;8.116;2022-09-24T06:19:14;2.77;;;1.83;;
20241;SDS011;10279;46.388;8.116;2022-09-24T06:21:41;2.57;;;1.80;;
20241;SDS011;10279;46.388;8.116;2022-09-24T06:24:08;1.70;;;1.60;;
20241;SDS011;10279;46.388;8.116;2022-09-24T06:26:36;2.43;;;1.97;;
20241;SDS011;10279;46.388;8.116;2022-09-24T06:29:03;1.63;;;1.43;;
20241;SDS011;10279;46.388;8.116;2022-09-24T06:31:31;3.33;;;1.73;;
20241;SDS011;10279;46.388;8.116;2022-09-24T06:34:00;3.27;;;1.87;;
20241;SDS011;10279;46.388;8.116;2022-09-24T06:36:28;3.17;;;1.80;;
20241;SDS011;10279;46.388;8.116;2022-09-24T06:38:55;3.00;;;2.10;;
20241;SDS011;10279;46.388;8.116;2022-09-24T06:41:24;2.00;;;1.80;;
20241;SDS011;10279;46.388;8.116;2022-09-24T06:43:54;1.97;;;1.80;;
20241;SDS011;10279;46.388;8.116;2022-09-24T06:46:21;1.80;;;1.70;;
20241;SDS011;10279;46.388;8.116;2022-09-24T06:48:51;2.10;;;1.77;;
20241;SDS011;10279;46.388;8.116;2022-09-24T06:51:22;2.20;;;1.73;;
20241;SDS011;10279;46.388;8.116;2022-09-24T06:53:52;1.60;;;1.50;;
20241;SDS011;10279;46.388;8.116;2022-09-24T06:56:19;2.07;;;1.87;;
20241;SDS011;10279;46.388;8.116;2022-09-24T06:58:46;2.40;;;1.70;;
20241;SDS011;10279;46.388;8.116;2022-09-24T07:01:14;1.50;;;1.40;;
20241;SDS011;10279;46.388;8.116;2022-09-24T07:03:41;1.60;;;1.50;;
20241;SDS011;10279;46.388;8.116;2022-09-24T07:06:09;2.80;;;2.23;;
20241;SDS011;10279;46.388;8.116;2022-09-24T07:08:36;2.37;;;2.17;;
20241;SDS011;10279;46.388;8.116;2022-09-24T07:11:03;3.37;;;2.00;;
20241;SDS011;10279;46.388;8.116;2022-09-24T07:13:31;4.00;;;2.10;;
20241;SDS011;10279;46.388;8.116;2022-09-24T07:15:58;4.37;;;2.20;;
20241;SDS011;10279;46.388;8.116;2022-09-24T07:18:27;2.63;;;2.27;;
20241;SDS011;10279;46.388;8.116;2022-09-24T07:20:54;3.77;;;2.20;;
20241;SDS011;10279;46.388;8.116;2022-09-24T07:23:22;3.87;;;2.50;;
20241;SDS011;10279;46.388;8.116;2022-09-24T07:25:53;7.97;;;2.87;;
20241;SDS011;10279;46.388;8.116;2022-09-24T07:28:21;4.10;;;2.87;;
20241;SDS011;10279;46.388;8.116;2022-09-24T07:30:54;3.13;;;2.80;;
20241;SDS011;10279;46.388;8.116;2022-09-24T07:33:22;4.73;;;2.80;;
20241;SDS011;10279;46.388;8.116;2022-09-24T07:35:49;5.50;;;2.77;;
20241;SDS011;10279;46.388;8.116;2022-09-24T07:38:16;4.67;;;3.57;;
20241;SDS011;10279;46.388;8.116;2022-09-24T07:40:44;4.23;;;2.47;;
20241;SDS011;10279;46.388;8.116;2022-09-24T07:43:11;3.90;;;2.63;;
20241;SDS011;10279;46.388;8.116;2022-09-24T07:45:40;3.60;;;2.60;;
20241;SDS011;10279;46.388;8.116;2022-09-24T07:48:08;4.93;;;2.60;;
20241;SDS011;10279;46.388;8.116;2022-09-24T07:50:39;4.43;;;2.90;;
20241;SDS011;10279;46.388;8.116;2022-09-24T07:53:10;5.93;;;2.73;;
20241;SDS011;10279;46.388;8.116;2022-09-24T07:55:38;2.60;;;2.40;;
20241;SDS011;10279;46.388;8.116;2022-09-24T07:58:13;5.27;;;2.50;;
20241;SDS011;10279;46.388;8.116;2022-09-24T08:00:40;5.00;;;2.53;;
20241;SDS011;10279;46.388;8.116;2022-09-24T08:03:08;5.10;;;2.57;;
20241;SDS011;10279;46.388;8.116;2022-09-24T08:05:40;2.60;;;2.40;;
20241;SDS011;10279;46.388;8.116;2022-09-24T08:08:09;4.70;;;2.60;;
20241;SDS011;10279;46.388;8.116;2022-09-24T08:10:36;5.07;;;2.80;;
20241;SDS011;10279;46.388;8.116;2022-09-24T08:13:03;7.07;;;2.70;;
20241;SDS011;10279;46.388;8.116;2022-09-24T08:15:31;4.80;;;3.07;;
20241;SDS011;10279;46.388;8.116;2022-09-24T08:18:01;5.43;;;3.30;;
20241;SDS011;10279;46.388;8.116;2022-09-24T08:20:30;4.83;;;3.20;;
20241;SDS011;10279;46.388;8.116;2022-09-24T08:23:00;6.10;;;3.33;;
20241;SDS011;10279;46.388;8.116;2022-09-24T08:25:28;6.27;;;3.50;;
20241;SDS011;10279;46.388;8.116;2022-09-24T08:28:00;7.30;;;3.83;;
20241;SDS011;10279;46.388;8.116;2022-09-24T08:30:27;9.83;;;5.13;;
20241;SDS011;10279;46.388;8.116;2022-09-24T08:32:56;6.57;;;4.10;;
20241;SDS011;10279;46.388;8.116;2022-09-24T08:35:24;7.03;;;4.10;;
20241;SDS011;10279;46.388;8.116;2022-09-24T08:37:54;7.50;;;4.07;;
20241;SDS011;10279;46.388;8.116;2022-09-24T08:40:23;7.00;;;4.00;;
20241;SDS011;10279;46.388;8.116;2022-09-24T08:45:21;5.23;;;4.03;;
20241;SDS011;10279;46.388;8.116;2022-09-24T08:50:34;8.63;;;3.97;;
20241;SDS011;10279;46.388;8.116;2022-09-24T08:55:48;6.53;;;3.70;;
20241;SDS011;10279;46.388;8.116;2022-09-24T09:00:57;4.87;;;3.90;;
20241;SDS011;10279;46.388;8.116;2022-09-24T09:06:00;5.17;;;3.80;;
20241;SDS011;10279;46.388;8.116;2022-09-24T09:11:31;4.43;;;3.80;;
20241;SDS011;10279;46.388;8.116;2022-09-24T09:14:03;5.00;;;3.83;;
20241;SDS011;10279;46.388;8.116;2022-09-24T09:16:54;5.67;;;3.80;;
20241;SDS011;10279;46.388;8.116;2022-09-24T09:19:25;5.20;;;4.10;;
20241;SDS011;10279;46.388;8.116;2022-09-24T09:21:56;6.03;;;4.83;;
20241;SDS011;10279;46.388;8.116;2022-09-24T09:24:36;5.80;;;4.37;;
20241;SDS011;10279;46.388;8.116;2022-09-24T09:27:09;4.23;;;3.83;;
20241;SDS011;10279;46.388;8.116;2022-09-24T09:29:37;4.20;;;3.80;;
20241;SDS011;10279;46.388;8.116;2022-09-24T09:42:46;4.23;;;3.70;;
20241;SDS011;10279;46.388;8.116;2022-09-24T09:45:28;5.53;;;4.20;;
20241;SDS011;10279;46.388;8.116;2022-09-24T09:48:00;5.63;;;4.20;;
20241;SDS011;10279;46.388;8.116;2022-09-24T09:52:56;7.40;;;4.80;;
20241;SDS011;10279;46.388;8.116;2022-09-24T09:55:28;5.57;;;4.73;;
20241;SDS011;10279;46.388;8.116;2022-09-24T10:00:42;6.77;;;4.73;;
20241;SDS011;10279;46.388;8.116;2022-09-24T10:06:00;8.63;;;5.60;;
20241;SDS011;10279;46.388;8.116;2022-09-24T10:08:27;9.30;;;5.40;;
20241;SDS011;10279;46.388;8.116;2022-09-24T10:10:56;6.43;;;5.17;;
20241;SDS011;10279;46.388;8.116;2022-09-24T10:13:23;8.30;;;5.97;;
20241;SDS011;10279;46.388;8.116;2022-09-24T10:15:52;9.57;;;6.73;;
20241;SDS011;10279;46.388;8.116;2022-09-24T10:18:25;9.97;;;6.20;;
20241;SDS011;10279;46.388;8.116;2022-09-24T10:20:54;8.03;;;5.50;;
20241;SDS011;10279;46.388;8.116;2022-09-24T10:23:25;5.33;;;4.30;;
20241;SDS011;10279;46.388;8.116;2022-09-24T10:25:57;5.30;;;3.90;;
20241;SDS011;10279;46.388;8.116;2022-09-24T10:28:25;4.83;;;3.50;;
20241;SDS011;10279;46.388;8.116;2022-09-24T10:31:14;5.23;;;4.20;;
20241;SDS011;10279;46.388;8.116;2022-09-24T10:33:43;4.87;;;4.23;;
20241;SDS011;10279;46.388;8.116;2022-09-24T10:36:21;5.23;;;4.40;;
20241;SDS011;10279;46.388;8.116;2022-09-24T10:39:00;5.13;;;4.00;;
20241;SDS011;10279;46.388;8.116;2022-09-24T10:41:29;4.80;;;4.30;;
20241;SDS011;10279;46.388;8.116;2022-09-24T10:43:56;4.50;;;4.10;;
20241;SDS011;10279;46.388;8.116;2022-09-24T10:49:06;4.30;;;3.87;;
20241;SDS011;10279;46.388;8.116;2022-09-24T10:54:08;4.40;;;4.00;;
20241;SDS011;10279;46.388;8.116;2022-09-24T10:56:48;4.97;;;4.30;;
20241;SDS011;10279;46.388;8.116;2022-09-24T11:09:43;4.07;;;3.50;;
20241;SDS011;10279;46.388;8.116;2022-09-24T11:18:06;4.80;;;2.70;;
20241;SDS011;10279;46.388;8.116;2022-09-24T11:20:36;4.13;;;3.10;;
20241;SDS011;10279;46.388;8.116;2022-09-24T11:46:25;3.50;;;3.20;;
20241;SDS011;10279;46.388;8.116;2022-09-24T11:52:05;3.93;;;3.43;;
20241;SDS011;10279;46.388;8.116;2022-09-24T11:54:38;3.17;;;2.87;;
20241;SDS011;10279;46.388;8.116;2022-09-24T11:59:49;4.07;;;3.60;;
20241;SDS011;10279;46.388;8.116;2022-09-24T12:02:24;3.27;;;2.93;;
20241;SDS011;10279;46.388;8.116;2022-09-24T12:04:58;3.60;;;3.23;;
20241;SDS011;10279;46.388;8.116;2022-09-24T12:07:30;5.80;;;3.57;;
20241;SDS011;10279;46.388;8.116;2022-09-24T12:10:01;3.10;;;2.63;;
20241;SDS011;10279;46.388;8.116;2022-09-24T12:12:34;3.83;;;2.60;;
20241;SDS011;10279;46.388;8.116;2022-09-24T12:15:17;2.90;;;2.60;;
20241;SDS011;10279;46.388;8.116;2022-09-24T12:17:50;3.30;;;3.00;;
20241;SDS011;10279;46.388;8.116;2022-09-24T12:22:50;3.13;;;2.83;;
20241;SDS011;10279;46.388;8.116;2022-09-24T12:25:26;2.20;;;2.00;;
20241;SDS011;10279;46.388;8.116;2022-09-24T12:27:55;4.07;;;2.20;;
20241;SDS011;10279;46.388;8.116;2022-09-24T12:38:43;3.03;;;2.73;;
20241;SDS011;10279;46.388;8.116;2022-09-24T12:46:33;2.80;;;2.03;;
20241;SDS011;10279;46.388;8.116;2022-09-24T12:51:47;3.00;;;2.10;;
20241;SDS011;10279;46.388;8.116;2022-09-24T12:59:57;2.23;;;2.00;;
20241;SDS011;10279;46.388;8.116;2022-09-24T13:02:44;2.57;;;2.37;;
20241;SDS011;10279;46.388;8.116;2022-09-24T13:07:55;2.57;;;2.13;;
20241;SDS011;10279;46.388;8.116;2022-09-24T13:10:24;2.40;;;2.10;;
20241;SDS011;10279;46.388;8.116;2022-09-24T13:12:52;2.77;;;2.37;;
20241;SDS011;10279;46.388;8.116;2022-09-24T13:15:25;2.53;;;2.33;;
20241;SDS011;10279;46.388;8.116;2022-09-24T13:18:04;2.10;;;1.90;;
20241;SDS011;10279;46.388;8.116;2022-09-24T13:20:32;2.20;;;2.00;;
20241;SDS011;10279;46.388;8.116;2022-09-24T13:26:04;2.10;;;1.90;;
20241;SDS011;10279;46.388;8.116;2022-09-24T13:31:18;2.00;;;1.80;;
20241;SDS011;10279;46.388;8.116;2022-09-24T13:33:50;2.10;;;1.80;;
20241;SDS011;10279;46.388;8.116;2022-09-24T13:36:34;1.80;;;1.70;;
20241;SDS011;10279;46.388;8.116;2022-09-24T13:42:03;3.10;;;2.00;;
20241;SDS011;10279;46.388;8.116;2022-09-24T13:44:37;1.87;;;1.50;;
20241;SDS011;10279;46.388;8.116;2022-09-24T13:49:46;1.70;;;1.60;;
20241;SDS011;10279;46.388;8.116;2022-09-24T13:54:51;1.75;;;1.40;;
20241;SDS011;10279;46.388;8.116;2022-09-24T13:57:22;1.50;;;1.40;;
20241;SDS011;10279;46.388;8.116;2022-09-24T14:00:01;1.50;;;1.30;;
20241;SDS011;10279;46.388;8.116;2022-09-24T14:02:33;1.52;;;1.42;;
20241;SDS011;10279;46.388;8.116;2022-09-24T14:05:05;2.53;;;1.10;;
20241;SDS011;10279;46.388;8.116;2022-09-24T14:07:33;2.80;;;1.33;;
20241;SDS011;10279;46.388;8.116;2022-09-24T14:10:02;1.30;;;1.20;;
20241;SDS011;10279;46.388;8.116;2022-09-24T14:12:30;1.10;;;1.00;;
20241;SDS011;10279;46.388;8.116;2022-09-24T14:14:57;1.00;;;0.90;;
20241;SDS011;10279;46.388;8.116;2022-09-24T14:17:25;1.05;;;0.80;;
20241;SDS011;10279;46.388;8.116;2022-09-24T14:19:53;0.75;;;0.70;;
20241;SDS011;10279;46.388;8.116;2022-09-24T14:22:29;0.85;;;0.85;;
20241;SDS011;10279;46.388;8.116;2022-09-24T14:25:03;1.13;;;0.90;;
20241;SDS011;10279;46.388;8.116;2022-09-24T14:27:32;1.10;;;0.90;;
20241;SDS011;10279;46.388;8.116;2022-09-24T14:30:03;0.85;;;0.80;;
20241;SDS011;10279;46.388;8.116;2022-09-24T14:32:38;0.70;;;0.70;;
20241;SDS011;10279;46.388;8.116;2022-09-24T14:37:39;0.60;;;0.60;;
20241;SDS011;10279;46.388;8.116;2022-09-24T14:40:14;1.05;;;0.73;;
20241;SDS011;10279;46.388;8.116;2022-09-24T14:42:46;0.80;;;0.80;;
20241;SDS011;10279;46.388;8.116;2022-09-24T14:45:35;0.52;;;0.52;;
20241;SDS011;10279;46.388;8.116;2022-09-24T14:50:52;0.60;;;0.55;;
20241;SDS011;10279;46.388;8.116;2022-09-24T14:55:47;0.70;;;0.57;;
20241;SDS011;10279;46.388;8.116;2022-09-24T14:58:21;0.70;;;0.70;;
20241;SDS011;10279;46.388;8.116;2022-09-24T15:00:50;0.60;;;0.60;;
20241;SDS011;10279;46.388;8.116;2022-09-24T15:06:03;0.82;;;0.77;;
20241;SDS011;10279;46.388;8.116;2022-09-24T15:08:31;0.60;;;0.60;;
20241;SDS011;10279;46.388;8.116;2022-09-24T15:11:03;0.60;;;0.60;;
20241;SDS011;10279;46.388;8.116;2022-09-24T15:13:34;0.55;;;0.55;;
20241;SDS011;10279;46.388;8.116;2022-09-24T15:18:41;0.75;;;0.65;;
20241;SDS011;10279;46.388;8.116;2022-09-24T15:21:08;0.73;;;0.52;;
20241;SDS011;10279;46.388;8.116;2022-09-24T15:23:38;1.00;;;0.60;;
20241;SDS011;10279;46.388;8.116;2022-09-24T15:26:05;0.50;;;0.50;;
20241;SDS011;10279;46.388;8.116;2022-09-24T15:28:33;0.50;;;0.50;;
20241;SDS011;10279;46.388;8.116;2022-09-24T15:31:00;0.70;;;0.50;;
20241;SDS011;10279;46.388;8.116;2022-09-24T15:33:27;0.50;;;0.50;;
20241;SDS011;10279;46.388;8.116;2022-09-24T15:35:55;0.98;;;0.50;;
20241;SDS011;10279;46.388;8.116;2022-09-24T15:38:22;1.20;;;0.68;;
20241;SDS011;10279;46.388;8.116;2022-09-24T15:40:50;0.40;;;0.40;;
20241;SDS011;10279;46.388;8.116;2022-09-24T15:43:20;0.40;;;0.40;;
20241;SDS011;10279;46.388;8.116;2022-09-24T15:45:48;0.50;;;0.50;;
20241;SDS011;10279;46.388;8.116;2022-09-24T15:48:15;0.68;;;0.60;;
20241;SDS011;10279;46.388;8.116;2022-09-24T15:50:43;0.60;;;0.60;;
20241;SDS011;10279;46.388;8.116;2022-09-24T15:53:21;0.40;;;0.40;;
20241;SDS011;10279;46.388;8.116;2022-09-24T15:55:50;0.40;;;0.40;;
20241;SDS011;10279;46.388;8.116;2022-09-24T15:58:19;0.60;;;0.60;;
20241;SDS011;10279;46.388;8.116;2022-09-24T16:00:47;0.50;;;0.50;;
20241;SDS011;10279;46.388;8.116;2022-09-24T16:05:50;0.40;;;0.40;;
20241;SDS011;10279;46.388;8.116;2022-09-24T16:08:18;0.73;;;0.60;;
20241;SDS011;10279;46.388;8.116;2022-09-24T16:10:46;0.40;;;0.40;;
20241;SDS011;10279;46.388;8.116;2022-09-24T16:13:13;0.40;;;0.40;;
20241;SDS011;10279;46.388;8.116;2022-09-24T16:15:42;0.60;;;0.60;;
20241;SDS011;10279;46.388;8.116;2022-09-24T16:18:13;1.15;;;0.93;;
20241;SDS011;10279;46.388;8.116;2022-09-24T16:20:40;1.10;;;1.10;;
20241;SDS011;10279;46.388;8.116;2022-09-24T16:23:13;1.63;;;0.80;;
20241;SDS011;10279;46.388;8.116;2022-09-24T16:25:41;0.63;;;0.63;;
20241;SDS011;10279;46.388;8.116;2022-09-24T16:28:19;1.13;;;0.50;;
20241;SDS011;10279;46.388;8.116;2022-09-24T16:30:47;0.53;;;0.53;;
20241;SDS011;10279;46.388;8.116;2022-09-24T16:33:14;0.50;;;0.50;;
20241;SDS011;10279;46.388;8.116;2022-09-24T16:35:42;0.50;;;0.50;;
20241;SDS011;10279;46.388;8.116;2022-09-24T16:38:09;0.40;;;0.40;;
20241;SDS011;10279;46.388;8.116;2022-09-24T16:40:37;0.47;;;0.47;;
20241;SDS011;10279;46.388;8.116;2022-09-24T16:43:04;1.80;;;0.60;;
20241;SDS011;10279;46.388;8.116;2022-09-24T16:45:32;0.53;;;0.53;;
20241;SDS011;10279;46.388;8.116;2022-09-24T16:47:59;1.07;;;0.80;;
20241;SDS011;10279;46.388;8.116;2022-09-24T16:50:26;1.70;;;1.30;;
20241;SDS011;10279;46.388;8.116;2022-09-24T16:52:54;2.27;;;1.93;;
20241;SDS011;10279;46.388;8.116;2022-09-24T16:55:21;3.47;;;2.03;;
20241;SDS011;10279;46.388;8.116;2022-09-24T16:57:52;2.40;;;2.10;;
20241;SDS011;10279;46.388;8.116;2022-09-24T17:00:19;3.20;;;2.17;;
20241;SDS011;10279;46.388;8.116;2022-09-24T17:02:47;2.13;;;1.93;;
20241;SDS011;10279;46.388;8.116;2022-09-24T17:05:14;1.73;;;1.63;;
20241;SDS011;10279;46.388;8.116;2022-09-24T17:07:41;2.00;;;1.70;;
20241;SDS011;10279;46.388;8.116;2022-09-24T17:10:09;1.83;;;1.57;;
20241;SDS011;10279;46.388;8.116;2022-09-24T17:12:47;2.07;;;1.53;;
20241;SDS011;10279;46.388;8.116;2022-09-24T17:15:16;1.93;;;1.73;;
20241;SDS011;10279;46.388;8.116;2022-09-24T17:17:47;1.50;;;1.40;;
20241;SDS011;10279;46.388;8.116;2022-09-24T17:20:16;1.83;;;1.47;;
20241;SDS011;10279;46.388;8.116;2022-09-24T17:22:43;1.93;;;1.83;;
20241;SDS011;10279;46.388;8.116;2022-09-24T17:25:13;2.40;;;1.60;;
20241;SDS011;10279;46.388;8.116;2022-09-24T17:27:40;1.83;;;1.30;;
20241;SDS011;10279;46.388;8.116;2022-09-24T17:30:08;1.83;;;1.23;;
20241;SDS011;10279;46.388;8.116;2022-09-24T17:32:36;2.13;;;1.50;;
20241;SDS011;10279;46.388;8.116;2022-09-24T17:35:04;1.23;;;1.07;;
20241;SDS011;10279;46.388;8.116;2022-09-24T17:37:31;1.50;;;1.40;;
20241;SDS011;10279;46.388;8.116;2022-09-24T17:39:59;1.10;;;1.00;;